sensor_id;sensor_type;location;lat;lon;timestamp;P1;durP1;ratioP1;P2;durP2;ratioP2
77148;SDS011;66122;47.130;16.844;2023-11-19T00:02:44;0.20;;;0.10;;
77148;SDS011;66122;47.130;16.844;2023-11-19T00:12:47;0.20;;;0.10;;
77148;SDS011;66122;47.130;16.844;2023-11-19T00:22:51;0.30;;;0.13;;
77148;SDS011;66122;47.130;16.844;2023-11-19T00:32:54;0.20;;;0.10;;
77148;SDS011;66122;47.130;16.844;2023-11-19T00:42:57;0.20;;;0.10;;
77148;SDS011;66122;47.130;16.844;2023-11-19T00:53:02;0.20;;;0.10;;
77148;SDS011;66122;47.130;16.844;2023-11-19T01:03:06;0.20;;;0.10;;
77148;SDS011;66122;47.130;16.844;2023-11-19T01:13:09;0.20;;;0.10;;
77148;SDS011;66122;47.130;16.844;2023-11-19T01:23:12;0.30;;;0.10;;
77148;SDS011;66122;47.130;16.844;2023-11-19T01:33:15;0.40;;;0.25;;
77148;SDS011;66122;47.130;16.844;2023-11-19T01:43:36;0.20;;;0.10;;
77148;SDS011;66122;47.130;16.844;2023-11-19T01:53:41;0.30;;;0.10;;
77148;SDS011;66122;47.130;16.844;2023-11-19T02:03:43;0.30;;;0.20;;
77148;SDS011;66122;47.130;16.844;2023-11-19T02:13:46;0.20;;;0.10;;
77148;SDS011;66122;47.130;16.844;2023-11-19T02:23:49;0.30;;;0.10;;
77148;SDS011;66122;47.130;16.844;2023-11-19T02:33:51;0.20;;;0.10;;
77148;SDS011;66122;47.130;16.844;2023-11-19T02:43:54;0.20;;;0.10;;
77148;SDS011;66122;47.130;16.844;2023-11-19T02:53:57;0.40;;;0.20;;
77148;SDS011;66122;47.130;16.844;2023-11-19T03:04:00;0.30;;;0.20;;
77148;SDS011;66122;47.130;16.844;2023-11-19T03:14:05;0.40;;;0.30;;
77148;SDS011;66122;47.130;16.844;2023-11-19T03:24:08;0.30;;;0.20;;
77148;SDS011;66122;47.130;16.844;2023-11-19T03:34:10;0.20;;;0.10;;
77148;SDS011;66122;47.130;16.844;2023-11-19T03:44:13;0.30;;;0.10;;
77148;SDS011;66122;47.130;16.844;2023-11-19T03:54:15;0.28;;;0.10;;
77148;SDS011;66122;47.130;16.844;2023-11-19T04:04:18;0.20;;;0.10;;
77148;SDS011;66122;47.130;16.844;2023-11-19T04:14:21;0.20;;;0.10;;
77148;SDS011;66122;47.130;16.844;2023-11-19T04:24:23;0.30;;;0.20;;
77148;SDS011;66122;47.130;16.844;2023-11-19T04:34:26;0.40;;;0.23;;
77148;SDS011;66122;47.130;16.844;2023-11-19T04:44:29;0.30;;;0.20;;
77148;SDS011;66122;47.130;16.844;2023-11-19T04:54:32;0.30;;;0.10;;
77148;SDS011;66122;47.130;16.844;2023-11-19T05:04:34;0.20;;;0.10;;
77148;SDS011;66122;47.130;16.844;2023-11-19T05:14:37;0.20;;;0.10;;
77148;SDS011;66122;47.130;16.844;2023-11-19T05:24:40;0.20;;;0.10;;
77148;SDS011;66122;47.130;16.844;2023-11-19T05:34:43;0.20;;;0.10;;
77148;SDS011;66122;47.130;16.844;2023-11-19T05:44:48;0.30;;;0.10;;
77148;SDS011;66122;47.130;16.844;2023-11-19T05:54:51;0.30;;;0.10;;
77148;SDS011;66122;47.130;16.844;2023-11-19T06:04:54;0.25;;;0.10;;
77148;SDS011;66122;47.130;16.844;2023-11-19T06:14:57;0.40;;;0.20;;
77148;SDS011;66122;47.130;16.844;2023-11-19T06:24:59;0.30;;;0.20;;
77148;SDS011;66122;47.130;16.844;2023-11-19T06:35:02;0.40;;;0.25;;
77148;SDS011;66122;47.130;16.844;2023-11-19T06:45:06;0.20;;;0.10;;
77148;SDS011;66122;47.130;16.844;2023-11-19T06:55:09;0.30;;;0.10;;
77148;SDS011;66122;47.130;16.844;2023-11-19T07:05:12;0.30;;;0.20;;
77148;SDS011;66122;47.130;16.844;2023-11-19T07:15:16;0.30;;;0.15;;
77148;SDS011;66122;47.130;16.844;2023-11-19T07:25:20;0.30;;;0.20;;
77148;SDS011;66122;47.130;16.844;2023-11-19T07:35:22;0.30;;;0.10;;
77148;SDS011;66122;47.130;16.844;2023-11-19T07:45:25;0.30;;;0.20;;
77148;SDS011;66122;47.130;16.844;2023-11-19T07:55:29;0.30;;;0.20;;
77148;SDS011;66122;47.130;16.844;2023-11-19T08:05:34;0.30;;;0.10;;
77148;SDS011;66122;47.130;16.844;2023-11-19T08:15:37;0.40;;;0.30;;
77148;SDS011;66122;47.130;16.844;2023-11-19T08:25:39;0.30;;;0.20;;
77148;SDS011;66122;47.130;16.844;2023-11-19T08:35:42;0.40;;;0.27;;
77148;SDS011;66122;47.130;16.844;2023-11-19T08:45:45;0.30;;;0.20;;
77148;SDS011;66122;47.130;16.844;2023-11-19T08:55:47;0.30;;;0.20;;
77148;SDS011;66122;47.130;16.844;2023-11-19T09:05:51;0.30;;;0.20;;
77148;SDS011;66122;47.130;16.844;2023-11-19T09:15:54;0.47;;;0.30;;
77148;SDS011;66122;47.130;16.844;2023-11-19T09:25:59;0.35;;;0.20;;
77148;SDS011;66122;47.130;16.844;2023-11-19T09:36:02;0.40;;;0.30;;
77148;SDS011;66122;47.130;16.844;2023-11-19T09:46:05;0.40;;;0.20;;
77148;SDS011;66122;47.130;16.844;2023-11-19T09:56:09;0.40;;;0.30;;
77148;SDS011;66122;47.130;16.844;2023-11-19T10:06:16;0.30;;;0.20;;
77148;SDS011;66122;47.130;16.844;2023-11-19T10:16:22;0.40;;;0.27;;
77148;SDS011;66122;47.130;16.844;2023-11-19T10:26:31;0.40;;;0.20;;
77148;SDS011;66122;47.130;16.844;2023-11-19T10:36:38;0.40;;;0.27;;
77148;SDS011;66122;47.130;16.844;2023-11-19T10:46:44;0.40;;;0.20;;
77148;SDS011;66122;47.130;16.844;2023-11-19T10:56:49;0.47;;;0.30;;
77148;SDS011;66122;47.130;16.844;2023-11-19T11:06:58;0.40;;;0.20;;
77148;SDS011;66122;47.130;16.844;2023-11-19T11:17:01;0.40;;;0.27;;
77148;SDS011;66122;47.130;16.844;2023-11-19T11:38:03;0.52;;;0.40;;
77148;SDS011;66122;47.130;16.844;2023-11-19T11:48:12;0.40;;;0.20;;
77148;SDS011;66122;47.130;16.844;2023-11-19T11:58:18;0.50;;;0.40;;
77148;SDS011;66122;47.130;16.844;2023-11-19T12:08:33;0.38;;;0.20;;
77148;SDS011;66122;47.130;16.844;2023-11-19T12:18:54;0.50;;;0.40;;
77148;SDS011;66122;47.130;16.844;2023-11-19T12:28:58;0.67;;;0.60;;
77148;SDS011;66122;47.130;16.844;2023-11-19T12:39:01;0.70;;;0.60;;
77148;SDS011;66122;47.130;16.844;2023-11-19T12:49:04;0.80;;;0.60;;
77148;SDS011;66122;47.130;16.844;2023-11-19T12:59:11;0.80;;;0.70;;
77148;SDS011;66122;47.130;16.844;2023-11-19T13:09:21;0.60;;;0.40;;
77148;SDS011;66122;47.130;16.844;2023-11-19T13:19:28;0.68;;;0.57;;
77148;SDS011;66122;47.130;16.844;2023-11-19T13:29:30;0.60;;;0.50;;
77148;SDS011;66122;47.130;16.844;2023-11-19T13:39:34;0.60;;;0.50;;
77148;SDS011;66122;47.130;16.844;2023-11-19T13:49:37;0.52;;;0.43;;
77148;SDS011;66122;47.130;16.844;2023-11-19T13:59:40;0.40;;;0.20;;
77148;SDS011;66122;47.130;16.844;2023-11-19T14:09:43;0.50;;;0.30;;
77148;SDS011;66122;47.130;16.844;2023-11-19T14:19:47;0.40;;;0.20;;
77148;SDS011;66122;47.130;16.844;2023-11-19T14:29:50;0.40;;;0.30;;
77148;SDS011;66122;47.130;16.844;2023-11-19T14:39:53;0.40;;;0.30;;
77148;SDS011;66122;47.130;16.844;2023-11-19T14:49:56;0.40;;;0.20;;
77148;SDS011;66122;47.130;16.844;2023-11-19T14:59:58;0.50;;;0.32;;
77148;SDS011;66122;47.130;16.844;2023-11-19T15:10:01;0.40;;;0.30;;
77148;SDS011;66122;47.130;16.844;2023-11-19T15:20:04;0.40;;;0.20;;
77148;SDS011;66122;47.130;16.844;2023-11-19T15:30:07;0.40;;;0.25;;
77148;SDS011;66122;47.130;16.844;2023-11-19T15:40:12;0.50;;;0.30;;
77148;SDS011;66122;47.130;16.844;2023-11-19T15:50:15;0.40;;;0.20;;
77148;SDS011;66122;47.130;16.844;2023-11-19T16:00:18;0.37;;;0.20;;
77148;SDS011;66122;47.130;16.844;2023-11-19T16:10:24;0.40;;;0.20;;
77148;SDS011;66122;47.130;16.844;2023-11-19T16:20:27;0.30;;;0.20;;
77148;SDS011;66122;47.130;16.844;2023-11-19T16:30:30;0.30;;;0.20;;
77148;SDS011;66122;47.130;16.844;2023-11-19T16:40:33;0.30;;;0.10;;
77148;SDS011;66122;47.130;16.844;2023-11-19T16:50:40;0.30;;;0.10;;
77148;SDS011;66122;47.130;16.844;2023-11-19T17:00:43;0.43;;;0.30;;
77148;SDS011;66122;47.130;16.844;2023-11-19T17:10:47;0.30;;;0.20;;
77148;SDS011;66122;47.130;16.844;2023-11-19T17:20:51;0.50;;;0.32;;
77148;SDS011;66122;47.130;16.844;2023-11-19T17:30:59;0.30;;;0.20;;
77148;SDS011;66122;47.130;16.844;2023-11-19T17:41:02;0.40;;;0.27;;
77148;SDS011;66122;47.130;16.844;2023-11-19T17:51:06;0.30;;;0.10;;
77148;SDS011;66122;47.130;16.844;2023-11-19T18:01:09;0.30;;;0.20;;
77148;SDS011;66122;47.130;16.844;2023-11-19T18:11:13;0.30;;;0.20;;
77148;SDS011;66122;47.130;16.844;2023-11-19T18:21:16;0.40;;;0.25;;
77148;SDS011;66122;47.130;16.844;2023-11-19T18:31:20;0.30;;;0.20;;
77148;SDS011;66122;47.130;16.844;2023-11-19T18:41:23;0.40;;;0.20;;
77148;SDS011;66122;47.130;16.844;2023-11-19T18:51:26;0.30;;;0.20;;
77148;SDS011;66122;47.130;16.844;2023-11-19T19:01:29;0.40;;;0.28;;
77148;SDS011;66122;47.130;16.844;2023-11-19T19:11:34;0.30;;;0.20;;
77148;SDS011;66122;47.130;16.844;2023-11-19T19:21:38;0.37;;;0.20;;
77148;SDS011;66122;47.130;16.844;2023-11-19T19:31:41;0.30;;;0.20;;
77148;SDS011;66122;47.130;16.844;2023-11-19T19:41:44;0.40;;;0.20;;
77148;SDS011;66122;47.130;16.844;2023-11-19T19:51:46;0.30;;;0.10;;
77148;SDS011;66122;47.130;16.844;2023-11-19T20:01:49;0.38;;;0.25;;
77148;SDS011;66122;47.130;16.844;2023-11-19T20:11:54;0.30;;;0.20;;
77148;SDS011;66122;47.130;16.844;2023-11-19T20:21:58;0.47;;;0.30;;
77148;SDS011;66122;47.130;16.844;2023-11-19T20:32:01;0.40;;;0.30;;
77148;SDS011;66122;47.130;16.844;2023-11-19T20:42:04;0.35;;;0.20;;
77148;SDS011;66122;47.130;16.844;2023-11-19T20:52:07;0.33;;;0.20;;
77148;SDS011;66122;47.130;16.844;2023-11-19T21:02:10;0.30;;;0.20;;
77148;SDS011;66122;47.130;16.844;2023-11-19T21:12:13;0.40;;;0.22;;
77148;SDS011;66122;47.130;16.844;2023-11-19T21:22:17;0.40;;;0.27;;
77148;SDS011;66122;47.130;16.844;2023-11-19T21:32:20;0.30;;;0.20;;
77148;SDS011;66122;47.130;16.844;2023-11-19T21:42:23;0.30;;;0.20;;
77148;SDS011;66122;47.130;16.844;2023-11-19T21:52:26;0.20;;;0.10;;
77148;SDS011;66122;47.130;16.844;2023-11-19T22:02:28;0.30;;;0.20;;
77148;SDS011;66122;47.130;16.844;2023-11-19T22:12:31;0.30;;;0.10;;
77148;SDS011;66122;47.130;16.844;2023-11-19T22:22:34;0.40;;;0.30;;
77148;SDS011;66122;47.130;16.844;2023-11-19T22:32:37;0.40;;;0.27;;
77148;SDS011;66122;47.130;16.844;2023-11-19T22:42:40;0.30;;;0.20;;
77148;SDS011;66122;47.130;16.844;2023-11-19T22:52:44;0.30;;;0.20;;
77148;SDS011;66122;47.130;16.844;2023-11-19T23:02:46;0.30;;;0.20;;
77148;SDS011;66122;47.130;16.844;2023-11-19T23:12:49;0.20;;;0.10;;
77148;SDS011;66122;47.130;16.844;2023-11-19T23:22:52;0.40;;;0.30;;
77148;SDS011;66122;47.130;16.844;2023-11-19T23:32:55;0.20;;;0.10;;
77148;SDS011;66122;47.130;16.844;2023-11-19T23:42:57;0.40;;;0.23;;
77148;SDS011;66122;47.130;16.844;2023-11-19T23:53:00;0.30;;;0.20;;
